sensor_id;sensor_type;location;lat;lon;timestamp;P1;durP1;ratioP1;P2;durP2;ratioP2
74465;SDS011;62916;50.044;15.938;2023-07-29T00:00:07;1.30;;;1.10;;
74465;SDS011;62916;50.044;15.938;2023-07-29T00:02:41;1.10;;;1.00;;
74465;SDS011;62916;50.044;15.938;2023-07-29T00:05:13;1.50;;;1.30;;
74465;SDS011;62916;50.044;15.938;2023-07-29T00:07:44;1.90;;;1.30;;
74465;SDS011;62916;50.044;15.938;2023-07-29T00:10:15;1.50;;;1.40;;
74465;SDS011;62916;50.044;15.938;2023-07-29T00:12:46;1.00;;;0.90;;
74465;SDS011;62916;50.044;15.938;2023-07-29T00:15:18;1.30;;;1.00;;
74465;SDS011;62916;50.044;15.938;2023-07-29T00:17:48;1.20;;;1.10;;
74465;SDS011;62916;50.044;15.938;2023-07-29T00:20:20;3.10;;;1.40;;
74465;SDS011;62916;50.044;15.938;2023-07-29T00:22:51;1.10;;;1.00;;
74465;SDS011;62916;50.044;15.938;2023-07-29T00:25:22;1.50;;;1.20;;
74465;SDS011;62916;50.044;15.938;2023-07-29T00:27:54;1.20;;;0.80;;
74465;SDS011;62916;50.044;15.938;2023-07-29T00:30:26;1.30;;;1.10;;
74465;SDS011;62916;50.044;15.938;2023-07-29T00:32:56;1.10;;;1.00;;
74465;SDS011;62916;50.044;15.938;2023-07-29T00:35:27;1.60;;;1.50;;
74465;SDS011;62916;50.044;15.938;2023-07-29T00:37:58;1.20;;;1.10;;
74465;SDS011;62916;50.044;15.938;2023-07-29T00:40:30;1.30;;;1.10;;
74465;SDS011;62916;50.044;15.938;2023-07-29T00:43:04;1.40;;;1.30;;
74465;SDS011;62916;50.044;15.938;2023-07-29T00:45:35;1.60;;;1.30;;
74465;SDS011;62916;50.044;15.938;2023-07-29T00:48:06;1.90;;;1.30;;
74465;SDS011;62916;50.044;15.938;2023-07-29T00:50:37;2.00;;;1.20;;
74465;SDS011;62916;50.044;15.938;2023-07-29T00:53:09;1.10;;;1.00;;
74465;SDS011;62916;50.044;15.938;2023-07-29T00:55:40;2.30;;;1.30;;
74465;SDS011;62916;50.044;15.938;2023-07-29T00:58:11;1.80;;;1.30;;
74465;SDS011;62916;50.044;15.938;2023-07-29T01:00:42;1.70;;;1.50;;
74465;SDS011;62916;50.044;15.938;2023-07-29T01:03:13;1.30;;;1.20;;
74465;SDS011;62916;50.044;15.938;2023-07-29T01:05:47;1.40;;;1.20;;
74465;SDS011;62916;50.044;15.938;2023-07-29T01:08:28;1.30;;;1.20;;
74465;SDS011;62916;50.044;15.938;2023-07-29T01:11:10;1.80;;;1.30;;
74465;SDS011;62916;50.044;15.938;2023-07-29T01:13:56;1.60;;;1.30;;
74465;SDS011;62916;50.044;15.938;2023-07-29T01:16:36;1.40;;;1.10;;
74465;SDS011;62916;50.044;15.938;2023-07-29T01:19:14;1.50;;;1.40;;
74465;SDS011;62916;50.044;15.938;2023-07-29T01:21:55;1.00;;;1.00;;
74465;SDS011;62916;50.044;15.938;2023-07-29T01:24:27;1.30;;;1.00;;
74465;SDS011;62916;50.044;15.938;2023-07-29T01:26:58;1.20;;;1.10;;
74465;SDS011;62916;50.044;15.938;2023-07-29T01:32:01;1.90;;;1.20;;
74465;SDS011;62916;50.044;15.938;2023-07-29T01:34:39;1.30;;;1.10;;
74465;SDS011;62916;50.044;15.938;2023-07-29T01:37:18;1.90;;;1.30;;
74465;SDS011;62916;50.044;15.938;2023-07-29T01:39:55;1.60;;;1.50;;
74465;SDS011;62916;50.044;15.938;2023-07-29T01:42:28;1.90;;;1.80;;
74465;SDS011;62916;50.044;15.938;2023-07-29T01:45:00;1.40;;;1.20;;
74465;SDS011;62916;50.044;15.938;2023-07-29T01:47:31;1.20;;;1.00;;
74465;SDS011;62916;50.044;15.938;2023-07-29T01:50:03;1.70;;;1.20;;
74465;SDS011;62916;50.044;15.938;2023-07-29T01:52:37;3.20;;;1.50;;
74465;SDS011;62916;50.044;15.938;2023-07-29T01:55:08;1.70;;;1.50;;
74465;SDS011;62916;50.044;15.938;2023-07-29T01:57:39;1.80;;;1.10;;
74465;SDS011;62916;50.044;15.938;2023-07-29T02:02:42;2.80;;;1.40;;
74465;SDS011;62916;50.044;15.938;2023-07-29T02:05:13;1.60;;;1.20;;
74465;SDS011;62916;50.044;15.938;2023-07-29T02:07:44;2.30;;;1.20;;
74465;SDS011;62916;50.044;15.938;2023-07-29T02:10:15;2.40;;;1.40;;
74465;SDS011;62916;50.044;15.938;2023-07-29T02:12:46;1.80;;;1.10;;
74465;SDS011;62916;50.044;15.938;2023-07-29T02:15:17;1.70;;;1.20;;
74465;SDS011;62916;50.044;15.938;2023-07-29T02:17:49;2.30;;;1.10;;
74465;SDS011;62916;50.044;15.938;2023-07-29T02:20:21;1.90;;;1.20;;
74465;SDS011;62916;50.044;15.938;2023-07-29T02:22:52;1.30;;;1.20;;
74465;SDS011;62916;50.044;15.938;2023-07-29T02:25:23;1.50;;;1.40;;
74465;SDS011;62916;50.044;15.938;2023-07-29T02:27:53;3.20;;;1.30;;
74465;SDS011;62916;50.044;15.938;2023-07-29T02:30:24;1.40;;;1.20;;
74465;SDS011;62916;50.044;15.938;2023-07-29T02:32:55;1.60;;;1.30;;
74465;SDS011;62916;50.044;15.938;2023-07-29T02:35:27;2.40;;;1.30;;
74465;SDS011;62916;50.044;15.938;2023-07-29T02:37:58;1.50;;;1.30;;
74465;SDS011;62916;50.044;15.938;2023-07-29T02:40:29;1.90;;;1.10;;
74465;SDS011;62916;50.044;15.938;2023-07-29T02:43:00;1.60;;;1.10;;
74465;SDS011;62916;50.044;15.938;2023-07-29T02:45:30;1.60;;;1.50;;
74465;SDS011;62916;50.044;15.938;2023-07-29T02:48:01;1.40;;;1.30;;
74465;SDS011;62916;50.044;15.938;2023-07-29T02:50:32;1.40;;;1.10;;
74465;SDS011;62916;50.044;15.938;2023-07-29T02:53:04;2.40;;;1.30;;
74465;SDS011;62916;50.044;15.938;2023-07-29T02:55:35;1.80;;;1.60;;
74465;SDS011;62916;50.044;15.938;2023-07-29T02:58:08;1.50;;;1.30;;
74465;SDS011;62916;50.044;15.938;2023-07-29T03:00:39;1.90;;;1.40;;
74465;SDS011;62916;50.044;15.938;2023-07-29T03:03:11;1.60;;;1.10;;
74465;SDS011;62916;50.044;15.938;2023-07-29T03:05:42;1.30;;;1.20;;
74465;SDS011;62916;50.044;15.938;2023-07-29T03:08:12;1.50;;;1.30;;
74465;SDS011;62916;50.044;15.938;2023-07-29T03:10:43;2.00;;;1.30;;
74465;SDS011;62916;50.044;15.938;2023-07-29T03:13:14;3.00;;;1.40;;
74465;SDS011;62916;50.044;15.938;2023-07-29T03:15:45;1.70;;;1.10;;
74465;SDS011;62916;50.044;15.938;2023-07-29T03:18:16;1.10;;;1.00;;
74465;SDS011;62916;50.044;15.938;2023-07-29T03:20:47;1.40;;;1.00;;
74465;SDS011;62916;50.044;15.938;2023-07-29T03:23:19;1.90;;;1.30;;
74465;SDS011;62916;50.044;15.938;2023-07-29T03:25:50;4.00;;;1.50;;
74465;SDS011;62916;50.044;15.938;2023-07-29T03:28:24;3.50;;;1.40;;
74465;SDS011;62916;50.044;15.938;2023-07-29T03:30:56;4.00;;;1.40;;
74465;SDS011;62916;50.044;15.938;2023-07-29T03:33:27;2.70;;;1.30;;
74465;SDS011;62916;50.044;15.938;2023-07-29T03:35:58;3.60;;;1.40;;
74465;SDS011;62916;50.044;15.938;2023-07-29T03:38:30;2.20;;;1.00;;
74465;SDS011;62916;50.044;15.938;2023-07-29T03:41:03;1.70;;;1.10;;
74465;SDS011;62916;50.044;15.938;2023-07-29T03:43:34;1.70;;;1.20;;
74465;SDS011;62916;50.044;15.938;2023-07-29T03:46:05;3.50;;;1.30;;
74465;SDS011;62916;50.044;15.938;2023-07-29T03:48:41;2.40;;;1.20;;
74465;SDS011;62916;50.044;15.938;2023-07-29T03:51:12;1.60;;;1.20;;
74465;SDS011;62916;50.044;15.938;2023-07-29T03:53:43;2.10;;;1.40;;
74465;SDS011;62916;50.044;15.938;2023-07-29T03:56:16;1.20;;;1.00;;
74465;SDS011;62916;50.044;15.938;2023-07-29T03:58:47;2.90;;;1.20;;
74465;SDS011;62916;50.044;15.938;2023-07-29T04:01:18;1.20;;;1.10;;
74465;SDS011;62916;50.044;15.938;2023-07-29T04:03:48;3.00;;;1.10;;
74465;SDS011;62916;50.044;15.938;2023-07-29T04:06:20;1.50;;;1.30;;
74465;SDS011;62916;50.044;15.938;2023-07-29T04:08:51;1.40;;;1.00;;
74465;SDS011;62916;50.044;15.938;2023-07-29T04:11:22;1.20;;;1.10;;
74465;SDS011;62916;50.044;15.938;2023-07-29T04:13:53;2.60;;;1.10;;
74465;SDS011;62916;50.044;15.938;2023-07-29T04:16:24;1.80;;;1.70;;
74465;SDS011;62916;50.044;15.938;2023-07-29T04:18:56;1.20;;;1.10;;
74465;SDS011;62916;50.044;15.938;2023-07-29T04:21:27;1.70;;;1.50;;
74465;SDS011;62916;50.044;15.938;2023-07-29T04:23:58;1.50;;;1.10;;
74465;SDS011;62916;50.044;15.938;2023-07-29T04:26:29;1.40;;;1.30;;
74465;SDS011;62916;50.044;15.938;2023-07-29T04:28:59;1.30;;;1.20;;
74465;SDS011;62916;50.044;15.938;2023-07-29T04:31:30;1.90;;;1.60;;
74465;SDS011;62916;50.044;15.938;2023-07-29T04:34:01;2.60;;;1.30;;
74465;SDS011;62916;50.044;15.938;2023-07-29T04:36:33;3.20;;;1.10;;
74465;SDS011;62916;50.044;15.938;2023-07-29T04:39:04;1.50;;;1.10;;
74465;SDS011;62916;50.044;15.938;2023-07-29T04:41:37;1.30;;;1.20;;
74465;SDS011;62916;50.044;15.938;2023-07-29T04:44:07;2.70;;;1.60;;
74465;SDS011;62916;50.044;15.938;2023-07-29T04:46:38;3.10;;;1.40;;
74465;SDS011;62916;50.044;15.938;2023-07-29T04:49:09;3.20;;;1.70;;
74465;SDS011;62916;50.044;15.938;2023-07-29T04:51:40;1.40;;;1.20;;
74465;SDS011;62916;50.044;15.938;2023-07-29T04:54:10;1.40;;;1.30;;
74465;SDS011;62916;50.044;15.938;2023-07-29T04:56:41;3.70;;;1.30;;
74465;SDS011;62916;50.044;15.938;2023-07-29T04:59:12;1.70;;;1.10;;
74465;SDS011;62916;50.044;15.938;2023-07-29T05:01:43;2.10;;;1.30;;
74465;SDS011;62916;50.044;15.938;2023-07-29T05:04:14;1.70;;;1.30;;
74465;SDS011;62916;50.044;15.938;2023-07-29T05:06:45;1.20;;;1.10;;
74465;SDS011;62916;50.044;15.938;2023-07-29T05:09:16;1.60;;;1.50;;
74465;SDS011;62916;50.044;15.938;2023-07-29T05:11:49;1.60;;;1.20;;
74465;SDS011;62916;50.044;15.938;2023-07-29T05:14:19;2.00;;;1.20;;
74465;SDS011;62916;50.044;15.938;2023-07-29T05:16:50;1.70;;;1.30;;
74465;SDS011;62916;50.044;15.938;2023-07-29T05:19:21;1.40;;;1.10;;
74465;SDS011;62916;50.044;15.938;2023-07-29T05:21:52;3.30;;;1.90;;
74465;SDS011;62916;50.044;15.938;2023-07-29T05:24:23;1.20;;;1.10;;
74465;SDS011;62916;50.044;15.938;2023-07-29T05:26:56;1.70;;;1.40;;
74465;SDS011;62916;50.044;15.938;2023-07-29T05:29:27;1.40;;;1.30;;
74465;SDS011;62916;50.044;15.938;2023-07-29T05:31:58;2.10;;;1.30;;
74465;SDS011;62916;50.044;15.938;2023-07-29T05:34:29;1.60;;;1.30;;
74465;SDS011;62916;50.044;15.938;2023-07-29T05:37:00;1.60;;;1.20;;
74465;SDS011;62916;50.044;15.938;2023-07-29T05:39:31;0.90;;;0.90;;
74465;SDS011;62916;50.044;15.938;2023-07-29T05:42:02;1.40;;;1.20;;
74465;SDS011;62916;50.044;15.938;2023-07-29T05:44:34;1.90;;;1.30;;
74465;SDS011;62916;50.044;15.938;2023-07-29T05:47:05;3.50;;;1.30;;
74465;SDS011;62916;50.044;15.938;2023-07-29T05:49:36;1.50;;;1.10;;
74465;SDS011;62916;50.044;15.938;2023-07-29T05:52:07;1.40;;;1.30;;
74465;SDS011;62916;50.044;15.938;2023-07-29T05:54:38;1.20;;;1.10;;
74465;SDS011;62916;50.044;15.938;2023-07-29T05:57:10;1.40;;;1.00;;
74465;SDS011;62916;50.044;15.938;2023-07-29T05:59:41;1.60;;;1.50;;
74465;SDS011;62916;50.044;15.938;2023-07-29T06:02:12;1.60;;;1.30;;
74465;SDS011;62916;50.044;15.938;2023-07-29T06:04:43;1.80;;;1.10;;
74465;SDS011;62916;50.044;15.938;2023-07-29T06:07:14;1.20;;;1.10;;
74465;SDS011;62916;50.044;15.938;2023-07-29T06:09:46;3.60;;;1.10;;
74465;SDS011;62916;50.044;15.938;2023-07-29T06:12:16;1.30;;;0.80;;
74465;SDS011;62916;50.044;15.938;2023-07-29T06:14:47;1.10;;;1.00;;
74465;SDS011;62916;50.044;15.938;2023-07-29T06:17:18;1.20;;;1.10;;
74465;SDS011;62916;50.044;15.938;2023-07-29T06:19:49;1.10;;;1.10;;
74465;SDS011;62916;50.044;15.938;2023-07-29T06:22:20;1.70;;;0.80;;
74465;SDS011;62916;50.044;15.938;2023-07-29T06:24:51;1.50;;;1.10;;
74465;SDS011;62916;50.044;15.938;2023-07-29T06:27:22;1.70;;;1.20;;
74465;SDS011;62916;50.044;15.938;2023-07-29T06:29:53;0.70;;;0.70;;
74465;SDS011;62916;50.044;15.938;2023-07-29T06:32:24;1.30;;;0.80;;
74465;SDS011;62916;50.044;15.938;2023-07-29T06:34:55;1.20;;;1.10;;
74465;SDS011;62916;50.044;15.938;2023-07-29T06:37:26;1.40;;;1.00;;
74465;SDS011;62916;50.044;15.938;2023-07-29T06:39:59;1.50;;;0.90;;
74465;SDS011;62916;50.044;15.938;2023-07-29T06:42:31;0.90;;;0.70;;
74465;SDS011;62916;50.044;15.938;2023-07-29T06:45:01;0.80;;;0.80;;
74465;SDS011;62916;50.044;15.938;2023-07-29T06:47:33;1.20;;;1.10;;
74465;SDS011;62916;50.044;15.938;2023-07-29T06:50:04;1.30;;;0.80;;
74465;SDS011;62916;50.044;15.938;2023-07-29T06:52:36;1.10;;;1.00;;
74465;SDS011;62916;50.044;15.938;2023-07-29T06:55:08;1.20;;;0.70;;
74465;SDS011;62916;50.044;15.938;2023-07-29T06:57:39;1.10;;;1.00;;
74465;SDS011;62916;50.044;15.938;2023-07-29T07:00:11;1.20;;;0.80;;
74465;SDS011;62916;50.044;15.938;2023-07-29T07:02:42;0.50;;;0.50;;
74465;SDS011;62916;50.044;15.938;2023-07-29T07:05:14;2.30;;;0.90;;
74465;SDS011;62916;50.044;15.938;2023-07-29T07:07:45;3.90;;;0.80;;
74465;SDS011;62916;50.044;15.938;2023-07-29T07:10:16;1.40;;;1.00;;
74465;SDS011;62916;50.044;15.938;2023-07-29T07:12:47;3.80;;;1.00;;
74465;SDS011;62916;50.044;15.938;2023-07-29T07:15:18;1.80;;;0.80;;
74465;SDS011;62916;50.044;15.938;2023-07-29T07:17:48;2.40;;;0.90;;
74465;SDS011;62916;50.044;15.938;2023-07-29T07:20:19;1.60;;;0.90;;
74465;SDS011;62916;50.044;15.938;2023-07-29T07:22:50;0.60;;;0.60;;
74465;SDS011;62916;50.044;15.938;2023-07-29T07:25:21;1.90;;;0.80;;
74465;SDS011;62916;50.044;15.938;2023-07-29T07:27:52;0.70;;;0.60;;
74465;SDS011;62916;50.044;15.938;2023-07-29T07:30:23;0.70;;;0.70;;
74465;SDS011;62916;50.044;15.938;2023-07-29T07:32:54;1.70;;;0.90;;
74465;SDS011;62916;50.044;15.938;2023-07-29T07:35:25;1.20;;;0.70;;
74465;SDS011;62916;50.044;15.938;2023-07-29T07:37:56;1.20;;;0.80;;
74465;SDS011;62916;50.044;15.938;2023-07-29T07:40:30;0.60;;;0.60;;
74465;SDS011;62916;50.044;15.938;2023-07-29T07:43:01;2.10;;;0.90;;
74465;SDS011;62916;50.044;15.938;2023-07-29T07:45:33;0.50;;;0.50;;
74465;SDS011;62916;50.044;15.938;2023-07-29T07:48:05;0.70;;;0.50;;
74465;SDS011;62916;50.044;15.938;2023-07-29T07:50:38;1.50;;;0.90;;
74465;SDS011;62916;50.044;15.938;2023-07-29T07:53:09;0.90;;;0.60;;
74465;SDS011;62916;50.044;15.938;2023-07-29T07:55:40;1.20;;;0.90;;
74465;SDS011;62916;50.044;15.938;2023-07-29T07:58:11;0.50;;;0.50;;
74465;SDS011;62916;50.044;15.938;2023-07-29T08:00:42;0.70;;;0.70;;
74465;SDS011;62916;50.044;15.938;2023-07-29T08:03:13;0.80;;;0.80;;
74465;SDS011;62916;50.044;15.938;2023-07-29T08:05:44;1.00;;;0.80;;
74465;SDS011;62916;50.044;15.938;2023-07-29T08:08:15;5.80;;;1.00;;
74465;SDS011;62916;50.044;15.938;2023-07-29T08:10:46;2.70;;;0.70;;
74465;SDS011;62916;50.044;15.938;2023-07-29T08:13:17;9.00;;;1.30;;
74465;SDS011;62916;50.044;15.938;2023-07-29T08:15:48;4.10;;;1.30;;
74465;SDS011;62916;50.044;15.938;2023-07-29T08:18:21;4.90;;;1.10;;
74465;SDS011;62916;50.044;15.938;2023-07-29T08:20:52;4.00;;;0.90;;
74465;SDS011;62916;50.044;15.938;2023-07-29T08:23:25;1.50;;;0.90;;
74465;SDS011;62916;50.044;15.938;2023-07-29T08:25:57;3.30;;;0.80;;
74465;SDS011;62916;50.044;15.938;2023-07-29T08:28:30;1.10;;;0.80;;
74465;SDS011;62916;50.044;15.938;2023-07-29T08:31:02;3.00;;;1.10;;
74465;SDS011;62916;50.044;15.938;2023-07-29T08:33:34;0.90;;;0.80;;
74465;SDS011;62916;50.044;15.938;2023-07-29T08:36:05;2.30;;;1.00;;
74465;SDS011;62916;50.044;15.938;2023-07-29T08:38:36;1.40;;;1.10;;
74465;SDS011;62916;50.044;15.938;2023-07-29T08:41:09;1.00;;;0.90;;
74465;SDS011;62916;50.044;15.938;2023-07-29T08:43:44;0.90;;;0.80;;
74465;SDS011;62916;50.044;15.938;2023-07-29T08:46:20;1.10;;;0.80;;
74465;SDS011;62916;50.044;15.938;2023-07-29T08:48:51;2.90;;;0.90;;
74465;SDS011;62916;50.044;15.938;2023-07-29T08:51:23;0.80;;;0.60;;
74465;SDS011;62916;50.044;15.938;2023-07-29T08:53:54;1.00;;;0.50;;
74465;SDS011;62916;50.044;15.938;2023-07-29T08:56:27;0.60;;;0.60;;
74465;SDS011;62916;50.044;15.938;2023-07-29T08:58:58;1.10;;;0.60;;
74465;SDS011;62916;50.044;15.938;2023-07-29T09:01:30;1.50;;;0.70;;
74465;SDS011;62916;50.044;15.938;2023-07-29T09:04:01;1.10;;;0.70;;
74465;SDS011;62916;50.044;15.938;2023-07-29T09:06:32;1.20;;;0.60;;
74465;SDS011;62916;50.044;15.938;2023-07-29T09:09:06;2.10;;;0.60;;
74465;SDS011;62916;50.044;15.938;2023-07-29T09:11:38;1.00;;;1.00;;
74465;SDS011;62916;50.044;15.938;2023-07-29T09:14:09;0.90;;;0.90;;
74465;SDS011;62916;50.044;15.938;2023-07-29T09:16:41;2.10;;;0.80;;
74465;SDS011;62916;50.044;15.938;2023-07-29T09:19:12;0.70;;;0.70;;
74465;SDS011;62916;50.044;15.938;2023-07-29T09:21:45;0.80;;;0.80;;
74465;SDS011;62916;50.044;15.938;2023-07-29T09:24:18;1.20;;;0.70;;
74465;SDS011;62916;50.044;15.938;2023-07-29T09:26:51;0.80;;;0.70;;
74465;SDS011;62916;50.044;15.938;2023-07-29T09:29:23;0.60;;;0.60;;
74465;SDS011;62916;50.044;15.938;2023-07-29T09:32:03;0.90;;;0.60;;
74465;SDS011;62916;50.044;15.938;2023-07-29T09:34:49;1.50;;;0.60;;
74465;SDS011;62916;50.044;15.938;2023-07-29T09:37:21;0.80;;;0.70;;
74465;SDS011;62916;50.044;15.938;2023-07-29T09:39:52;0.80;;;0.60;;
74465;SDS011;62916;50.044;15.938;2023-07-29T09:42:23;0.60;;;0.40;;
74465;SDS011;62916;50.044;15.938;2023-07-29T09:44:54;1.10;;;1.00;;
74465;SDS011;62916;50.044;15.938;2023-07-29T09:47:26;0.70;;;0.70;;
74465;SDS011;62916;50.044;15.938;2023-07-29T09:49:57;1.10;;;0.70;;
74465;SDS011;62916;50.044;15.938;2023-07-29T09:52:30;0.70;;;0.70;;
74465;SDS011;62916;50.044;15.938;2023-07-29T09:55:02;0.40;;;0.30;;
74465;SDS011;62916;50.044;15.938;2023-07-29T09:57:34;0.50;;;0.50;;
74465;SDS011;62916;50.044;15.938;2023-07-29T10:00:07;0.70;;;0.60;;
74465;SDS011;62916;50.044;15.938;2023-07-29T10:02:40;1.10;;;0.50;;
74465;SDS011;62916;50.044;15.938;2023-07-29T10:05:12;0.90;;;0.60;;
74465;SDS011;62916;50.044;15.938;2023-07-29T10:07:44;1.30;;;0.60;;
74465;SDS011;62916;50.044;15.938;2023-07-29T10:10:16;1.10;;;1.00;;
74465;SDS011;62916;50.044;15.938;2023-07-29T10:12:47;4.00;;;0.60;;
74465;SDS011;62916;50.044;15.938;2023-07-29T10:15:19;1.90;;;0.60;;
74465;SDS011;62916;50.044;15.938;2023-07-29T10:17:51;4.10;;;0.70;;
74465;SDS011;62916;50.044;15.938;2023-07-29T10:20:22;1.50;;;0.70;;
74465;SDS011;62916;50.044;15.938;2023-07-29T10:22:53;0.80;;;0.60;;
74465;SDS011;62916;50.044;15.938;2023-07-29T10:25:32;1.70;;;0.60;;
74465;SDS011;62916;50.044;15.938;2023-07-29T10:28:11;1.50;;;0.70;;
74465;SDS011;62916;50.044;15.938;2023-07-29T10:30:44;0.60;;;0.50;;
74465;SDS011;62916;50.044;15.938;2023-07-29T10:33:15;1.20;;;0.70;;
74465;SDS011;62916;50.044;15.938;2023-07-29T10:35:46;1.50;;;0.80;;
74465;SDS011;62916;50.044;15.938;2023-07-29T10:38:18;0.90;;;0.80;;
74465;SDS011;62916;50.044;15.938;2023-07-29T10:40:52;0.60;;;0.50;;
74465;SDS011;62916;50.044;15.938;2023-07-29T10:43:31;1.10;;;0.90;;
74465;SDS011;62916;50.044;15.938;2023-07-29T10:46:15;1.10;;;1.10;;
74465;SDS011;62916;50.044;15.938;2023-07-29T10:48:53;1.10;;;1.00;;
74465;SDS011;62916;50.044;15.938;2023-07-29T10:51:29;1.00;;;0.80;;
74465;SDS011;62916;50.044;15.938;2023-07-29T10:54:08;1.40;;;1.30;;
74465;SDS011;62916;50.044;15.938;2023-07-29T10:56:42;0.80;;;0.60;;
74465;SDS011;62916;50.044;15.938;2023-07-29T10:59:34;0.90;;;0.70;;
74465;SDS011;62916;50.044;15.938;2023-07-29T11:02:11;0.90;;;0.90;;
74465;SDS011;62916;50.044;15.938;2023-07-29T11:04:48;0.70;;;0.70;;
74465;SDS011;62916;50.044;15.938;2023-07-29T11:07:21;1.00;;;0.50;;
74465;SDS011;62916;50.044;15.938;2023-07-29T11:10:01;0.70;;;0.70;;
74465;SDS011;62916;50.044;15.938;2023-07-29T11:12:37;0.70;;;0.60;;
74465;SDS011;62916;50.044;15.938;2023-07-29T11:15:14;1.10;;;1.00;;
74465;SDS011;62916;50.044;15.938;2023-07-29T11:17:48;0.80;;;0.80;;
74465;SDS011;62916;50.044;15.938;2023-07-29T11:20:21;0.60;;;0.60;;
74465;SDS011;62916;50.044;15.938;2023-07-29T11:22:53;0.60;;;0.50;;
74465;SDS011;62916;50.044;15.938;2023-07-29T11:25:26;0.70;;;0.70;;
74465;SDS011;62916;50.044;15.938;2023-07-29T11:27:59;0.70;;;0.70;;
74465;SDS011;62916;50.044;15.938;2023-07-29T11:30:34;0.80;;;0.60;;
74465;SDS011;62916;50.044;15.938;2023-07-29T11:35:37;0.60;;;0.60;;
74465;SDS011;62916;50.044;15.938;2023-07-29T11:38:08;0.80;;;0.50;;
74465;SDS011;62916;50.044;15.938;2023-07-29T11:40:55;0.60;;;0.60;;
74465;SDS011;62916;50.044;15.938;2023-07-29T11:43:27;0.40;;;0.40;;
74465;SDS011;62916;50.044;15.938;2023-07-29T11:45:58;1.10;;;1.10;;
74465;SDS011;62916;50.044;15.938;2023-07-29T11:48:32;0.80;;;0.60;;
74465;SDS011;62916;50.044;15.938;2023-07-29T11:51:03;0.90;;;0.70;;
74465;SDS011;62916;50.044;15.938;2023-07-29T11:53:34;0.90;;;0.80;;
74465;SDS011;62916;50.044;15.938;2023-07-29T11:56:05;1.10;;;0.60;;
74465;SDS011;62916;50.044;15.938;2023-07-29T11:58:37;1.00;;;0.70;;
74465;SDS011;62916;50.044;15.938;2023-07-29T12:01:08;0.50;;;0.50;;
74465;SDS011;62916;50.044;15.938;2023-07-29T12:03:40;0.80;;;0.80;;
74465;SDS011;62916;50.044;15.938;2023-07-29T12:06:12;0.80;;;0.40;;
74465;SDS011;62916;50.044;15.938;2023-07-29T12:08:44;0.70;;;0.60;;
74465;SDS011;62916;50.044;15.938;2023-07-29T12:11:15;0.70;;;0.70;;
74465;SDS011;62916;50.044;15.938;2023-07-29T12:13:46;0.60;;;0.60;;
74465;SDS011;62916;50.044;15.938;2023-07-29T12:16:17;0.80;;;0.70;;
74465;SDS011;62916;50.044;15.938;2023-07-29T12:18:49;0.80;;;0.60;;
74465;SDS011;62916;50.044;15.938;2023-07-29T12:21:20;1.30;;;0.70;;
74465;SDS011;62916;50.044;15.938;2023-07-29T12:23:51;0.80;;;0.80;;
74465;SDS011;62916;50.044;15.938;2023-07-29T12:26:28;0.60;;;0.50;;
74465;SDS011;62916;50.044;15.938;2023-07-29T12:29:10;0.80;;;0.80;;
74465;SDS011;62916;50.044;15.938;2023-07-29T12:31:42;0.70;;;0.60;;
74465;SDS011;62916;50.044;15.938;2023-07-29T12:34:18;0.60;;;0.50;;
74465;SDS011;62916;50.044;15.938;2023-07-29T12:36:50;1.00;;;0.80;;
74465;SDS011;62916;50.044;15.938;2023-07-29T12:39:23;0.70;;;0.50;;
74465;SDS011;62916;50.044;15.938;2023-07-29T12:41:56;0.60;;;0.40;;
74465;SDS011;62916;50.044;15.938;2023-07-29T12:44:31;0.60;;;0.50;;
74465;SDS011;62916;50.044;15.938;2023-07-29T12:47:04;1.50;;;0.60;;
74465;SDS011;62916;50.044;15.938;2023-07-29T12:49:36;0.50;;;0.50;;
74465;SDS011;62916;50.044;15.938;2023-07-29T12:52:07;0.60;;;0.50;;
74465;SDS011;62916;50.044;15.938;2023-07-29T12:54:39;0.80;;;0.70;;
74465;SDS011;62916;50.044;15.938;2023-07-29T13:09:15;0.80;;;0.80;;
74465;SDS011;62916;50.044;15.938;2023-07-29T13:11:46;1.30;;;0.60;;
74465;SDS011;62916;50.044;15.938;2023-07-29T13:14:17;2.50;;;0.90;;
74465;SDS011;62916;50.044;15.938;2023-07-29T13:16:48;2.50;;;0.70;;
74465;SDS011;62916;50.044;15.938;2023-07-29T13:19:19;2.70;;;1.20;;
74465;SDS011;62916;50.044;15.938;2023-07-29T13:21:50;5.70;;;0.90;;
74465;SDS011;62916;50.044;15.938;2023-07-29T13:24:21;1.90;;;0.90;;
74465;SDS011;62916;50.044;15.938;2023-07-29T13:26:53;2.80;;;0.70;;
74465;SDS011;62916;50.044;15.938;2023-07-29T13:29:25;2.20;;;0.80;;
74465;SDS011;62916;50.044;15.938;2023-07-29T13:31:56;2.20;;;0.80;;
74465;SDS011;62916;50.044;15.938;2023-07-29T13:34:27;1.80;;;0.70;;
74465;SDS011;62916;50.044;15.938;2023-07-29T13:37:01;2.20;;;0.90;;
74465;SDS011;62916;50.044;15.938;2023-07-29T13:39:33;1.80;;;0.60;;
74465;SDS011;62916;50.044;15.938;2023-07-29T13:42:04;3.20;;;1.20;;
74465;SDS011;62916;50.044;15.938;2023-07-29T13:44:36;2.90;;;0.50;;
74465;SDS011;62916;50.044;15.938;2023-07-29T13:47:07;1.60;;;0.70;;
74465;SDS011;62916;50.044;15.938;2023-07-29T13:49:38;1.30;;;0.60;;
74465;SDS011;62916;50.044;15.938;2023-07-29T13:52:09;4.60;;;0.80;;
74465;SDS011;62916;50.044;15.938;2023-07-29T13:54:40;1.60;;;0.70;;
74465;SDS011;62916;50.044;15.938;2023-07-29T13:57:11;3.40;;;1.00;;
74465;SDS011;62916;50.044;15.938;2023-07-29T13:59:43;3.60;;;0.70;;
74465;SDS011;62916;50.044;15.938;2023-07-29T14:02:14;2.10;;;0.70;;
74465;SDS011;62916;50.044;15.938;2023-07-29T14:04:45;1.70;;;0.60;;
74465;SDS011;62916;50.044;15.938;2023-07-29T14:07:16;3.00;;;0.90;;
74465;SDS011;62916;50.044;15.938;2023-07-29T14:09:47;2.90;;;0.80;;
74465;SDS011;62916;50.044;15.938;2023-07-29T14:12:18;1.60;;;0.50;;
74465;SDS011;62916;50.044;15.938;2023-07-29T14:14:49;1.50;;;0.90;;
74465;SDS011;62916;50.044;15.938;2023-07-29T14:17:20;1.70;;;0.60;;
74465;SDS011;62916;50.044;15.938;2023-07-29T14:19:51;1.40;;;0.80;;
74465;SDS011;62916;50.044;15.938;2023-07-29T14:22:22;1.90;;;0.90;;
74465;SDS011;62916;50.044;15.938;2023-07-29T14:24:54;2.00;;;0.80;;
74465;SDS011;62916;50.044;15.938;2023-07-29T14:27:28;1.10;;;0.70;;
74465;SDS011;62916;50.044;15.938;2023-07-29T14:29:58;2.10;;;0.70;;
74465;SDS011;62916;50.044;15.938;2023-07-29T14:32:30;1.80;;;1.00;;
74465;SDS011;62916;50.044;15.938;2023-07-29T14:35:01;1.30;;;0.60;;
74465;SDS011;62916;50.044;15.938;2023-07-29T14:37:32;1.30;;;0.60;;
74465;SDS011;62916;50.044;15.938;2023-07-29T14:40:04;1.90;;;0.70;;
74465;SDS011;62916;50.044;15.938;2023-07-29T14:42:36;2.50;;;0.70;;
74465;SDS011;62916;50.044;15.938;2023-07-29T14:45:09;2.80;;;0.60;;
74465;SDS011;62916;50.044;15.938;2023-07-29T14:47:40;1.80;;;0.70;;
74465;SDS011;62916;50.044;15.938;2023-07-29T14:50:12;3.10;;;1.00;;
74465;SDS011;62916;50.044;15.938;2023-07-29T14:52:43;1.50;;;0.60;;
74465;SDS011;62916;50.044;15.938;2023-07-29T14:55:14;2.20;;;0.50;;
74465;SDS011;62916;50.044;15.938;2023-07-29T14:57:45;2.50;;;0.70;;
74465;SDS011;62916;50.044;15.938;2023-07-29T15:00:17;1.20;;;0.50;;
74465;SDS011;62916;50.044;15.938;2023-07-29T15:02:48;1.90;;;0.80;;
74465;SDS011;62916;50.044;15.938;2023-07-29T15:05:19;2.00;;;0.60;;
74465;SDS011;62916;50.044;15.938;2023-07-29T15:07:50;1.60;;;0.70;;
74465;SDS011;62916;50.044;15.938;2023-07-29T15:10:22;1.30;;;0.70;;
74465;SDS011;62916;50.044;15.938;2023-07-29T15:12:53;2.40;;;0.70;;
74465;SDS011;62916;50.044;15.938;2023-07-29T15:15:24;1.20;;;0.50;;
74465;SDS011;62916;50.044;15.938;2023-07-29T15:17:55;1.10;;;0.60;;
74465;SDS011;62916;50.044;15.938;2023-07-29T15:20:26;1.60;;;0.50;;